TRA1049 EGNX-EHLE
Flight info
| Callsign | TRA1049 |
|---|---|
| Flight time | 0h 55m |
| Altitude | 33000 |
| Route | BPK Q295 BRAIN M197 REDFA L620 TACHA DCT PAM |
| Aircraft | A320/M-SDE3FGHIRWY/LB1 |
Departure
| Time | 2026-04-23 10:45 |
|---|---|
| Airport | East Midlands Airport (EGNX) |
Arrival
| Time | 2026-04-23 11:40 |
|---|---|
| Airport | Lelystad Airport (EHLE) |
| Time | Latitude | Longitude | Altitude | Speed | Heading |
|---|---|---|---|---|---|
| 2026-04-23 10:31 | 52.82710 | -1.33348 | 300 ft | 0 kts | 179° |
| 2026-04-23 10:35 | 52.82711 | -1.33348 | 300 ft | 1 kts | 179° |
| 2026-04-23 10:35 | 52.82726 | -1.33349 | 300 ft | 2 kts | 179° |
| 2026-04-23 10:36 | 52.82740 | -1.33349 | 300 ft | 2 kts | 179° |
| 2026-04-23 10:36 | 52.82756 | -1.33350 | 300 ft | 2 kts | 179° |
| 2026-04-23 10:36 | 52.82770 | -1.33350 | 300 ft | 2 kts | 179° |
| 2026-04-23 10:36 | 52.82785 | -1.33351 | 300 ft | 2 kts | 179° |
| 2026-04-23 10:37 | 52.82789 | -1.33351 | 300 ft | 0 kts | 179° |
| 2026-04-23 10:39 | 52.82779 | -1.33350 | 300 ft | 2 kts | 173° |
| 2026-04-23 10:39 | 52.82764 | -1.33335 | 300 ft | 2 kts | 127° |
| 2026-04-23 10:39 | 52.82764 | -1.33287 | 300 ft | 5 kts | 84° |
| 2026-04-23 10:39 | 52.82773 | -1.33210 | 299 ft | 7 kts | 63° |
| 2026-04-23 10:40 | 52.82822 | -1.33166 | 299 ft | 8 kts | 6° |
| 2026-04-23 10:40 | 52.82883 | -1.33167 | 300 ft | 8 kts | 350° |
| 2026-04-23 10:40 | 52.82919 | -1.33236 | 300 ft | 8 kts | 285° |
| 2026-04-23 10:40 | 52.82922 | -1.33338 | 301 ft | 9 kts | 268° |
| 2026-04-23 10:41 | 52.82920 | -1.33442 | 302 ft | 9 kts | 268° |
| 2026-04-23 10:41 | 52.82917 | -1.33551 | 303 ft | 9 kts | 268° |
| 2026-04-23 10:41 | 52.82914 | -1.33674 | 304 ft | 11 kts | 268° |
| 2026-04-23 10:41 | 52.82912 | -1.33822 | 305 ft | 13 kts | 269° |
| 2026-04-23 10:42 | 52.82910 | -1.33991 | 306 ft | 15 kts | 269° |
| 2026-04-23 10:42 | 52.82907 | -1.34175 | 307 ft | 16 kts | 269° |
| 2026-04-23 10:42 | 52.82907 | -1.34375 | 308 ft | 17 kts | 271° |
| 2026-04-23 10:42 | 52.82905 | -1.34561 | 309 ft | 11 kts | 268° |
| 2026-04-23 10:43 | 52.82944 | -1.34658 | 310 ft | 11 kts | 347° |
| 2026-04-23 10:43 | 52.82983 | -1.34664 | 310 ft | 0 kts | 359° |
| 2026-04-23 10:43 | 52.82989 | -1.34664 | 311 ft | 3 kts | 359° |
| 2026-04-23 10:43 | 52.83041 | -1.34646 | 311 ft | 9 kts | 36° |
| 2026-04-23 10:44 | 52.83067 | -1.34554 | 311 ft | 0 kts | 84° |
| 2026-04-23 10:44 | 52.83070 | -1.34496 | 310 ft | 29 kts | 86° |
| 2026-04-23 10:44 | 52.83089 | -1.33641 | 306 ft | 114 kts | 89° |
| 2026-04-23 10:45 | 52.83112 | -1.32009 | 511 ft | 158 kts | 88° |
| 2026-04-23 10:45 | 52.83137 | -1.30253 | 1361 ft | 156 kts | 87° |
| 2026-04-23 10:45 | 52.83141 | -1.28523 | 2275 ft | 154 kts | 96° |
| 2026-04-23 10:45 | 52.82581 | -1.26989 | 2860 ft | 175 kts | 142° |
| 2026-04-23 10:46 | 52.81342 | -1.26450 | 3436 ft | 200 kts | 174° |
| 2026-04-23 10:46 | 52.79893 | -1.26266 | 3987 ft | 220 kts | 160° |
| 2026-04-23 10:46 | 52.78531 | -1.25004 | 4627 ft | 237 kts | 142° |
| 2026-04-23 10:46 | 52.77205 | -1.23293 | 5408 ft | 253 kts | 141° |
| 2026-04-23 10:47 | 52.75805 | -1.21502 | 6406 ft | 259 kts | 142° |
| 2026-04-23 10:47 | 52.74372 | -1.19743 | 7429 ft | 263 kts | 143° |
| 2026-04-23 10:47 | 52.72884 | -1.17974 | 8394 ft | 269 kts | 144° |
| 2026-04-23 10:47 | 52.71369 | -1.16212 | 9301 ft | 274 kts | 145° |
| 2026-04-23 10:48 | 52.69797 | -1.14412 | 10173 ft | 281 kts | 146° |
| 2026-04-23 10:48 | 52.68180 | -1.12578 | 11063 ft | 286 kts | 146° |
| 2026-04-23 10:48 | 52.66512 | -1.10701 | 11634 ft | 302 kts | 146° |
| 2026-04-23 10:48 | 52.64723 | -1.08694 | 12111 ft | 320 kts | 146° |
| 2026-04-23 10:49 | 52.62854 | -1.06603 | 12753 ft | 331 kts | 146° |
| 2026-04-23 10:49 | 52.60952 | -1.04477 | 13629 ft | 335 kts | 146° |
| 2026-04-23 10:49 | 52.59035 | -1.02336 | 14498 ft | 338 kts | 146° |
| 2026-04-23 10:49 | 52.57072 | -1.00147 | 15305 ft | 342 kts | 145° |
| 2026-04-23 10:50 | 52.55096 | -0.97949 | 16092 ft | 347 kts | 145° |
| 2026-04-23 10:50 | 52.53118 | -0.95747 | 16830 ft | 352 kts | 145° |
| 2026-04-23 10:50 | 52.51088 | -0.93493 | 17548 ft | 357 kts | 145° |
| 2026-04-23 10:50 | 52.49025 | -0.91205 | 18252 ft | 362 kts | 144° |
| 2026-04-23 10:51 | 52.46932 | -0.88887 | 18932 ft | 368 kts | 144° |
| 2026-04-23 10:51 | 52.44807 | -0.86533 | 19582 ft | 373 kts | 144° |
| 2026-04-23 10:51 | 52.42628 | -0.84123 | 20217 ft | 379 kts | 144° |
| 2026-04-23 10:51 | 52.40446 | -0.81709 | 20841 ft | 384 kts | 144° |
| 2026-04-23 10:52 | 52.38240 | -0.79275 | 21460 ft | 389 kts | 144° |
| 2026-04-23 10:52 | 52.35989 | -0.76795 | 22063 ft | 394 kts | 143° |
| 2026-04-23 10:52 | 52.33683 | -0.74256 | 22664 ft | 399 kts | 143° |
| 2026-04-23 10:52 | 52.31389 | -0.71733 | 23246 ft | 404 kts | 143° |
| 2026-04-23 10:53 | 52.29062 | -0.69178 | 23802 ft | 408 kts | 143° |
| 2026-04-23 10:53 | 52.26696 | -0.66581 | 24347 ft | 413 kts | 143° |
| 2026-04-23 10:53 | 52.24318 | -0.63977 | 24895 ft | 416 kts | 143° |
| 2026-04-23 10:53 | 52.21916 | -0.61350 | 25445 ft | 419 kts | 143° |
| 2026-04-23 10:54 | 52.19463 | -0.58671 | 25975 ft | 423 kts | 143° |
| 2026-04-23 10:54 | 52.17026 | -0.56014 | 26453 ft | 426 kts | 143° |
| 2026-04-23 10:54 | 52.14549 | -0.53316 | 26926 ft | 430 kts | 143° |
| 2026-04-23 10:54 | 52.12097 | -0.50648 | 27380 ft | 433 kts | 143° |
| 2026-04-23 10:55 | 52.09547 | -0.47879 | 27823 ft | 436 kts | 143° |
| 2026-04-23 10:55 | 52.06979 | -0.45093 | 28270 ft | 439 kts | 143° |
| 2026-04-23 10:55 | 52.04445 | -0.42347 | 28701 ft | 442 kts | 143° |
| 2026-04-23 10:55 | 52.01890 | -0.39582 | 29134 ft | 444 kts | 143° |
| 2026-04-23 10:56 | 51.99318 | -0.36803 | 29509 ft | 447 kts | 143° |
| 2026-04-23 10:56 | 51.96713 | -0.33991 | 29883 ft | 450 kts | 144° |
| 2026-04-23 10:56 | 51.94107 | -0.31185 | 30261 ft | 452 kts | 144° |
| 2026-04-23 10:56 | 51.91487 | -0.28367 | 30604 ft | 455 kts | 144° |
| 2026-04-23 10:57 | 51.88843 | -0.25527 | 30987 ft | 456 kts | 144° |
| 2026-04-23 10:57 | 51.86232 | -0.22727 | 31355 ft | 457 kts | 144° |
| 2026-04-23 10:57 | 51.83627 | -0.19772 | 31797 ft | 454 kts | 139° |
| 2026-04-23 10:57 | 51.81360 | -0.16311 | 32246 ft | 448 kts | 130° |
| 2026-04-23 10:58 | 51.79493 | -0.12374 | 32636 ft | 445 kts | 121° |
| 2026-04-23 10:58 | 51.78014 | -0.07944 | 32953 ft | 442 kts | 111° |
| 2026-04-23 10:58 | 51.77011 | -0.03288 | 33251 ft | 441 kts | 103° |
| 2026-04-23 10:58 | 51.76463 | 0.01567 | 33434 ft | 440 kts | 95° |
| 2026-04-23 10:59 | 51.76707 | 0.11337 | 33447 ft | 437 kts | 82° |
| 2026-04-23 10:59 | 51.77571 | 0.21002 | 33452 ft | 435 kts | 81° |
| 2026-04-23 11:00 | 51.78372 | 0.30589 | 33455 ft | 433 kts | 82° |
| 2026-04-23 11:00 | 51.79143 | 0.40222 | 33453 ft | 431 kts | 82° |
| 2026-04-23 11:01 | 51.79900 | 0.49768 | 33450 ft | 429 kts | 83° |
| 2026-04-23 11:01 | 51.80647 | 0.59262 | 33449 ft | 429 kts | 83° |
| 2026-04-23 11:02 | 51.81668 | 0.68730 | 33443 ft | 428 kts | 79° |
| 2026-04-23 11:02 | 51.83082 | 0.78036 | 33441 ft | 428 kts | 78° |
| 2026-04-23 11:03 | 51.84678 | 0.87306 | 33443 ft | 429 kts | 77° |
| 2026-04-23 11:03 | 51.86369 | 0.96567 | 33445 ft | 431 kts | 77° |
| 2026-04-23 11:04 | 51.88063 | 1.05891 | 33451 ft | 431 kts | 77° |
| 2026-04-23 11:04 | 51.89741 | 1.15194 | 33454 ft | 432 kts | 78° |
| 2026-04-23 11:05 | 51.91407 | 1.24482 | 33456 ft | 431 kts | 78° |
| 2026-04-23 11:05 | 51.93063 | 1.33767 | 33457 ft | 430 kts | 78° |
| 2026-04-23 11:06 | 51.95531 | 1.47655 | 33461 ft | 428 kts | 78° |
| 2026-04-23 11:07 | 51.97164 | 1.56932 | 33460 ft | 428 kts | 78° |
| 2026-04-23 11:07 | 51.98790 | 1.66220 | 33457 ft | 429 kts | 79° |
| 2026-04-23 11:08 | 52.00311 | 1.75495 | 33459 ft | 426 kts | 81° |
| 2026-04-23 11:08 | 52.01735 | 1.84777 | 33461 ft | 425 kts | 82° |
| 2026-04-23 11:09 | 52.03154 | 1.94008 | 33470 ft | 425 kts | 82° |
| 2026-04-23 11:09 | 52.04578 | 2.03292 | 33477 ft | 425 kts | 82° |
| 2026-04-23 11:10 | 52.05998 | 2.12580 | 33476 ft | 425 kts | 82° |
| 2026-04-23 11:10 | 52.07404 | 2.21837 | 33471 ft | 425 kts | 81° |
| 2026-04-23 11:11 | 52.08810 | 2.31133 | 33468 ft | 423 kts | 81° |
| 2026-04-23 11:11 | 52.10207 | 2.40428 | 33464 ft | 424 kts | 81° |
| 2026-04-23 11:12 | 52.11642 | 2.49676 | 33458 ft | 427 kts | 79° |
| 2026-04-23 11:12 | 52.13379 | 2.58911 | 33460 ft | 427 kts | 77° |
| 2026-04-23 11:13 | 52.15133 | 2.68106 | 33463 ft | 427 kts | 78° |
| 2026-04-23 11:13 | 52.16886 | 2.77349 | 33461 ft | 427 kts | 78° |
| 2026-04-23 11:14 | 52.18619 | 2.86556 | 33460 ft | 427 kts | 78° |
| 2026-04-23 11:14 | 52.20348 | 2.95776 | 33458 ft | 427 kts | 78° |
| 2026-04-23 11:15 | 52.22076 | 3.05037 | 33456 ft | 427 kts | 78° |
| 2026-04-23 11:15 | 52.23789 | 3.14269 | 33461 ft | 427 kts | 78° |
| 2026-04-23 11:16 | 52.25335 | 3.23614 | 33462 ft | 424 kts | 83° |
| 2026-04-23 11:16 | 52.26053 | 3.33038 | 33461 ft | 420 kts | 89° |
| 2026-04-23 11:17 | 52.26516 | 3.42517 | 32706 ft | 421 kts | 89° |
| 2026-04-23 11:17 | 52.26741 | 3.47255 | 31616 ft | 429 kts | 89° |
| 2026-04-23 11:17 | 52.26969 | 3.52122 | 30509 ft | 434 kts | 89° |
| 2026-04-23 11:17 | 52.27199 | 3.56987 | 29786 ft | 430 kts | 88° |
| 2026-04-23 11:18 | 52.27430 | 3.61833 | 29193 ft | 424 kts | 88° |
| 2026-04-23 11:18 | 52.27652 | 3.66550 | 28537 ft | 421 kts | 89° |
| 2026-04-23 11:18 | 52.27878 | 3.71391 | 27821 ft | 418 kts | 89° |
| 2026-04-23 11:18 | 52.28093 | 3.76057 | 27131 ft | 415 kts | 89° |
| 2026-04-23 11:19 | 52.28307 | 3.80762 | 26433 ft | 413 kts | 88° |
| 2026-04-23 11:19 | 52.28517 | 3.85382 | 25741 ft | 411 kts | 88° |
| 2026-04-23 11:19 | 52.28725 | 3.89990 | 25075 ft | 408 kts | 88° |
| 2026-04-23 11:19 | 52.28928 | 3.94577 | 24449 ft | 406 kts | 88° |
| 2026-04-23 11:20 | 52.29128 | 3.99082 | 23837 ft | 403 kts | 88° |
| 2026-04-23 11:20 | 52.29328 | 4.03630 | 23210 ft | 401 kts | 88° |
| 2026-04-23 11:20 | 52.29524 | 4.08157 | 22595 ft | 398 kts | 87° |
| 2026-04-23 11:20 | 52.29717 | 4.12636 | 21994 ft | 396 kts | 87° |
| 2026-04-23 11:21 | 52.29907 | 4.17075 | 21403 ft | 393 kts | 87° |
| 2026-04-23 11:21 | 52.30095 | 4.21515 | 20803 ft | 391 kts | 87° |
| 2026-04-23 11:21 | 52.30241 | 4.25889 | 20219 ft | 387 kts | 91° |
| 2026-04-23 11:21 | 52.29788 | 4.30195 | 19680 ft | 382 kts | 109° |
| 2026-04-23 11:22 | 52.28539 | 4.33935 | 19203 ft | 376 kts | 128° |
| 2026-04-23 11:22 | 52.26617 | 4.36759 | 18714 ft | 372 kts | 147° |
| 2026-04-23 11:22 | 52.24266 | 4.38310 | 18230 ft | 369 kts | 167° |
| 2026-04-23 11:22 | 52.21717 | 4.38419 | 17758 ft | 367 kts | 188° |
| 2026-04-23 11:23 | 52.19342 | 4.37063 | 17309 ft | 364 kts | 209° |
| 2026-04-23 11:23 | 52.17428 | 4.34433 | 16822 ft | 362 kts | 231° |
| 2026-04-23 11:23 | 52.16229 | 4.30867 | 16343 ft | 358 kts | 253° |
| 2026-04-23 11:23 | 52.15916 | 4.26938 | 15910 ft | 352 kts | 275° |
| 2026-04-23 11:24 | 52.16499 | 4.23166 | 15422 ft | 345 kts | 297° |
| 2026-04-23 11:24 | 52.17899 | 4.20044 | 14937 ft | 337 kts | 320° |
| 2026-04-23 11:24 | 52.19861 | 4.18106 | 14421 ft | 330 kts | 343° |
| 2026-04-23 11:24 | 52.22083 | 4.17581 | 13890 ft | 323 kts | 5° |
| 2026-04-23 11:25 | 52.24234 | 4.18544 | 13351 ft | 319 kts | 28° |
| 2026-04-23 11:25 | 52.25920 | 4.20800 | 12838 ft | 318 kts | 50° |
| 2026-04-23 11:25 | 52.27007 | 4.23920 | 12260 ft | 321 kts | 69° |
| 2026-04-23 11:25 | 52.27428 | 4.27490 | 11823 ft | 319 kts | 80° |
| 2026-04-23 11:26 | 52.27701 | 4.31042 | 11527 ft | 311 kts | 80° |
| 2026-04-23 11:26 | 52.27964 | 4.34499 | 11222 ft | 303 kts | 80° |
| 2026-04-23 11:26 | 52.28215 | 4.37819 | 10938 ft | 295 kts | 80° |
| 2026-04-23 11:26 | 52.28466 | 4.41126 | 10650 ft | 288 kts | 79° |
| 2026-04-23 11:27 | 52.28710 | 4.44324 | 10352 ft | 281 kts | 80° |
| 2026-04-23 11:27 | 52.28947 | 4.47439 | 10074 ft | 274 kts | 79° |
| 2026-04-23 11:27 | 52.29178 | 4.50489 | 9793 ft | 268 kts | 79° |
| 2026-04-23 11:27 | 52.29402 | 4.53474 | 9513 ft | 262 kts | 79° |
| 2026-04-23 11:28 | 52.29620 | 4.56362 | 9256 ft | 257 kts | 79° |
| 2026-04-23 11:28 | 52.29838 | 4.59260 | 8957 ft | 252 kts | 79° |
| 2026-04-23 11:28 | 52.30046 | 4.62031 | 8713 ft | 246 kts | 79° |
| 2026-04-23 11:28 | 52.30251 | 4.64785 | 8481 ft | 240 kts | 79° |
| 2026-04-23 11:29 | 52.30451 | 4.67474 | 8189 ft | 237 kts | 80° |
| 2026-04-23 11:29 | 52.30646 | 4.70128 | 7889 ft | 234 kts | 80° |
| 2026-04-23 11:29 | 52.30841 | 4.72762 | 7572 ft | 233 kts | 79° |
| 2026-04-23 11:29 | 52.31036 | 4.75399 | 7245 ft | 232 kts | 80° |
| 2026-04-23 11:30 | 52.31227 | 4.77992 | 6923 ft | 231 kts | 80° |
| 2026-04-23 11:30 | 52.31417 | 4.80590 | 6608 ft | 230 kts | 79° |
| 2026-04-23 11:30 | 52.31605 | 4.83159 | 6295 ft | 229 kts | 80° |
| 2026-04-23 11:30 | 52.31795 | 4.85764 | 5986 ft | 228 kts | 80° |
| 2026-04-23 11:31 | 52.31980 | 4.88312 | 5678 ft | 228 kts | 80° |
| 2026-04-23 11:31 | 52.32164 | 4.90869 | 5376 ft | 227 kts | 80° |
| 2026-04-23 11:31 | 52.32346 | 4.93402 | 5079 ft | 226 kts | 80° |
| 2026-04-23 11:31 | 52.32531 | 4.95969 | 4813 ft | 223 kts | 80° |
| 2026-04-23 11:32 | 52.32703 | 4.98422 | 4588 ft | 219 kts | 80° |
| 2026-04-23 11:32 | 52.32877 | 5.00872 | 4351 ft | 215 kts | 79° |
| 2026-04-23 11:32 | 52.33049 | 5.03282 | 4114 ft | 210 kts | 80° |
| 2026-04-23 11:32 | 52.33211 | 5.05585 | 3913 ft | 202 kts | 79° |
| 2026-04-23 11:33 | 52.33369 | 5.07839 | 3584 ft | 199 kts | 79° |
| 2026-04-23 11:33 | 52.33527 | 5.10036 | 3393 ft | 187 kts | 79° |
| 2026-04-23 11:33 | 52.33682 | 5.12039 | 3309 ft | 170 kts | 78° |
| 2026-04-23 11:33 | 52.33827 | 5.13859 | 3277 ft | 159 kts | 77° |
| 2026-04-23 11:34 | 52.33976 | 5.15660 | 3251 ft | 159 kts | 77° |
| 2026-04-23 11:34 | 52.34122 | 5.17448 | 3194 ft | 159 kts | 77° |
| 2026-04-23 11:34 | 52.34269 | 5.19257 | 3120 ft | 159 kts | 77° |
| 2026-04-23 11:34 | 52.34408 | 5.21018 | 2970 ft | 154 kts | 78° |
| 2026-04-23 11:35 | 52.34545 | 5.22747 | 2892 ft | 154 kts | 78° |
| 2026-04-23 11:35 | 52.34682 | 5.24493 | 2909 ft | 154 kts | 77° |
| 2026-04-23 11:35 | 52.34817 | 5.26211 | 2928 ft | 154 kts | 77° |
| 2026-04-23 11:35 | 52.34954 | 5.27945 | 2939 ft | 154 kts | 77° |
| 2026-04-23 11:36 | 52.35090 | 5.29680 | 2941 ft | 153 kts | 77° |
| 2026-04-23 11:36 | 52.35222 | 5.31372 | 2930 ft | 149 kts | 77° |
| 2026-04-23 11:36 | 52.35446 | 5.33020 | 2928 ft | 145 kts | 62° |
| 2026-04-23 11:36 | 52.35944 | 5.34418 | 2930 ft | 143 kts | 51° |
| 2026-04-23 11:37 | 52.36554 | 5.35700 | 2720 ft | 141 kts | 46° |
| 2026-04-23 11:37 | 52.37202 | 5.36909 | 2446 ft | 141 kts | 45° |
| 2026-04-23 11:37 | 52.37853 | 5.38081 | 2154 ft | 141 kts | 44° |
| 2026-04-23 11:37 | 52.38517 | 5.39268 | 1852 ft | 140 kts | 44° |
| 2026-04-23 11:38 | 52.39166 | 5.40431 | 1611 ft | 140 kts | 44° |
| 2026-04-23 11:38 | 52.39830 | 5.41622 | 1423 ft | 142 kts | 44° |
| 2026-04-23 11:38 | 52.40493 | 5.42809 | 1242 ft | 141 kts | 44° |
| 2026-04-23 11:38 | 52.41153 | 5.43993 | 1055 ft | 142 kts | 44° |
| 2026-04-23 11:39 | 52.41825 | 5.45176 | 876 ft | 140 kts | 43° |
| 2026-04-23 11:39 | 52.42479 | 5.46413 | 712 ft | 144 kts | 43° |
| 2026-04-23 11:39 | 52.43166 | 5.47599 | 509 ft | 143 kts | 45° |
| 2026-04-23 11:39 | 52.43817 | 5.48788 | 274 ft | 140 kts | 44° |
| 2026-04-23 11:40 | 52.44477 | 5.49949 | 70 ft | 132 kts | 43° |
| 2026-04-23 11:40 | 52.45047 | 5.50953 | -3 ft | 99 kts | 46° |
| 2026-04-23 11:40 | 52.45322 | 5.51437 | -4 ft | 30 kts | 49° |
| 2026-04-23 11:40 | 52.45454 | 5.51693 | -3 ft | 29 kts | 47° |
| 2026-04-23 11:41 | 52.45590 | 5.51936 | -3 ft | 26 kts | 44° |
| 2026-04-23 11:41 | 52.45704 | 5.52130 | -3 ft | 21 kts | 48° |
| 2026-04-23 11:41 | 52.45805 | 5.52316 | -4 ft | 22 kts | 48° |
| 2026-04-23 11:41 | 52.45889 | 5.52467 | -4 ft | 12 kts | 47° |
| 2026-04-23 11:42 | 52.45963 | 5.52491 | -4 ft | 13 kts | 324° |
| 2026-04-23 11:42 | 52.46024 | 5.52370 | -4 ft | 14 kts | 271° |
| 2026-04-23 11:42 | 52.46039 | 5.52244 | -4 ft | 9 kts | 308° |
| 2026-04-23 11:42 | 52.46060 | 5.52213 | -4 ft | 4 kts | 319° |
| 2026-04-23 11:43 | 52.46073 | 5.52195 | -4 ft | 0 kts | 319° |